JBU517 KBOS-KJFK
Flight info
| Callsign | JBU517 |
|---|---|
| Flight time | 0h 39m |
| Altitude | 22000 |
| Route | SSOXS7 SSOXS BUZRD SEY PARCH4 |
| Aircraft | A321/M-SDE3FGHIRWY/LB1 |
Departure
| Time | 2026-05-08 23:20 |
|---|---|
| Airport | Boston Logan International Airport (KBOS) |
Arrival
| Time | 2026-05-08 23:59 |
|---|---|
| Airport | John F. Kennedy International Airport (KJFK) |
| Time | Latitude | Longitude | Altitude | Speed | Heading |
|---|---|---|---|---|---|
| 2026-05-08 22:58 | 42.36574 | -71.01385 | 24 ft | 0 kts | 299° |
| 2026-05-08 23:10 | 42.36569 | -71.01373 | 25 ft | 4 kts | 304° |
| 2026-05-08 23:10 | 42.36556 | -71.01342 | 25 ft | 4 kts | 281° |
| 2026-05-08 23:11 | 42.36558 | -71.01311 | 24 ft | 4 kts | 224° |
| 2026-05-08 23:11 | 42.36566 | -71.01303 | 25 ft | 0 kts | 205° |
| 2026-05-08 23:15 | 42.36565 | -71.01303 | 25 ft | 1 kts | 205° |
| 2026-05-08 23:15 | 42.36550 | -71.01313 | 24 ft | 5 kts | 205° |
| 2026-05-08 23:15 | 42.36497 | -71.01347 | 25 ft | 15 kts | 205° |
| 2026-05-08 23:15 | 42.36379 | -71.01385 | 24 ft | 17 kts | 152° |
| 2026-05-08 23:16 | 42.36312 | -71.01262 | 27 ft | 16 kts | 122° |
| 2026-05-08 23:16 | 42.36257 | -71.01134 | 27 ft | 17 kts | 116° |
| 2026-05-08 23:16 | 42.36207 | -71.00980 | 26 ft | 19 kts | 113° |
| 2026-05-08 23:16 | 42.36151 | -71.00814 | 24 ft | 21 kts | 115° |
| 2026-05-08 23:17 | 42.36097 | -71.00622 | 23 ft | 22 kts | 109° |
| 2026-05-08 23:17 | 42.36047 | -71.00425 | 29 ft | 22 kts | 108° |
| 2026-05-08 23:17 | 42.35998 | -71.00230 | 28 ft | 22 kts | 109° |
| 2026-05-08 23:17 | 42.35934 | -71.00049 | 29 ft | 22 kts | 129° |
| 2026-05-08 23:18 | 42.35826 | -70.99902 | 30 ft | 22 kts | 135° |
| 2026-05-08 23:18 | 42.35713 | -70.99751 | 28 ft | 24 kts | 135° |
| 2026-05-08 23:18 | 42.35591 | -70.99587 | 30 ft | 26 kts | 135° |
| 2026-05-08 23:18 | 42.35493 | -70.99449 | 28 ft | 12 kts | 115° |
| 2026-05-08 23:19 | 42.35503 | -70.99320 | 27 ft | 17 kts | 73° |
| 2026-05-08 23:19 | 42.35536 | -70.99256 | 27 ft | 6 kts | 347° |
| 2026-05-08 23:19 | 42.35642 | -70.99399 | 29 ft | 57 kts | 315° |
| 2026-05-08 23:19 | 42.35914 | -70.99762 | 32 ft | 105 kts | 315° |
| 2026-05-08 23:20 | 42.36849 | -71.01012 | 141 ft | 166 kts | 313° |
| 2026-05-08 23:20 | 42.37395 | -71.01726 | 684 ft | 159 kts | 313° |
| 2026-05-08 23:20 | 42.38406 | -71.03172 | 1567 ft | 161 kts | 299° |
| 2026-05-08 23:20 | 42.38807 | -71.04088 | 1779 ft | 175 kts | 297° |
| 2026-05-08 23:21 | 42.39456 | -71.05606 | 2029 ft | 198 kts | 297° |
| 2026-05-08 23:21 | 42.40183 | -71.07319 | 2238 ft | 223 kts | 297° |
| 2026-05-08 23:21 | 42.40810 | -71.09324 | 2655 ft | 239 kts | 275° |
| 2026-05-08 23:21 | 42.40462 | -71.11500 | 3378 ft | 243 kts | 242° |
| 2026-05-08 23:22 | 42.39541 | -71.13427 | 4206 ft | 245 kts | 237° |
| 2026-05-08 23:22 | 42.38540 | -71.15319 | 5008 ft | 249 kts | 236° |
| 2026-05-08 23:22 | 42.37507 | -71.17217 | 5785 ft | 253 kts | 235° |
| 2026-05-08 23:22 | 42.36212 | -71.18865 | 6531 ft | 263 kts | 213° |
| 2026-05-08 23:23 | 42.34481 | -71.19690 | 7282 ft | 273 kts | 190° |
| 2026-05-08 23:23 | 42.32545 | -71.19458 | 8013 ft | 284 kts | 165° |
| 2026-05-08 23:23 | 42.30667 | -71.18547 | 8775 ft | 288 kts | 163° |
| 2026-05-08 23:23 | 42.28772 | -71.17607 | 9513 ft | 292 kts | 163° |
| 2026-05-08 23:24 | 42.26850 | -71.16650 | 10255 ft | 296 kts | 161° |
| 2026-05-08 23:24 | 42.25032 | -71.15351 | 10952 ft | 305 kts | 149° |
| 2026-05-08 23:24 | 42.23311 | -71.13475 | 11176 ft | 330 kts | 142° |
| 2026-05-08 23:24 | 42.21512 | -71.11374 | 11334 ft | 354 kts | 142° |
| 2026-05-08 23:25 | 42.19605 | -71.09135 | 11652 ft | 370 kts | 142° |
| 2026-05-08 23:25 | 42.17652 | -71.06841 | 12267 ft | 374 kts | 142° |
| 2026-05-08 23:25 | 42.15672 | -71.04523 | 12897 ft | 380 kts | 143° |
| 2026-05-08 23:25 | 42.13543 | -71.02404 | 13462 ft | 385 kts | 149° |
| 2026-05-08 23:26 | 42.11332 | -71.00332 | 14047 ft | 390 kts | 149° |
| 2026-05-08 23:26 | 42.09088 | -70.98226 | 14585 ft | 397 kts | 148° |
| 2026-05-08 23:26 | 42.06809 | -70.96099 | 15151 ft | 402 kts | 149° |
| 2026-05-08 23:26 | 42.04426 | -70.94131 | 15646 ft | 400 kts | 161° |
| 2026-05-08 23:27 | 42.01775 | -70.93101 | 16161 ft | 394 kts | 180° |
| 2026-05-08 23:27 | 41.99071 | -70.93162 | 16714 ft | 385 kts | 197° |
| 2026-05-08 23:27 | 41.96556 | -70.94210 | 17291 ft | 374 kts | 214° |
| 2026-05-08 23:27 | 41.94342 | -70.95899 | 17897 ft | 371 kts | 219° |
| 2026-05-08 23:28 | 41.92092 | -70.97712 | 18516 ft | 373 kts | 220° |
| 2026-05-08 23:28 | 41.89889 | -70.99498 | 19106 ft | 376 kts | 220° |
| 2026-05-08 23:28 | 41.87644 | -71.01320 | 19705 ft | 379 kts | 220° |
| 2026-05-08 23:28 | 41.85379 | -71.03151 | 20264 ft | 381 kts | 220° |
| 2026-05-08 23:29 | 41.83090 | -71.04995 | 20782 ft | 384 kts | 220° |
| 2026-05-08 23:29 | 41.80786 | -71.06844 | 21303 ft | 387 kts | 220° |
| 2026-05-08 23:29 | 41.78465 | -71.08701 | 21763 ft | 390 kts | 220° |
| 2026-05-08 23:29 | 41.76143 | -71.10567 | 21897 ft | 390 kts | 221° |
| 2026-05-08 23:30 | 41.74074 | -71.12868 | 21925 ft | 384 kts | 236° |
| 2026-05-08 23:30 | 41.72550 | -71.15757 | 21928 ft | 379 kts | 244° |
| 2026-05-08 23:30 | 41.71134 | -71.18738 | 21925 ft | 380 kts | 244° |
| 2026-05-08 23:30 | 41.69722 | -71.21731 | 21924 ft | 380 kts | 244° |
| 2026-05-08 23:31 | 41.68315 | -71.24723 | 21918 ft | 380 kts | 244° |
| 2026-05-08 23:31 | 41.66903 | -71.27721 | 21914 ft | 380 kts | 244° |
| 2026-05-08 23:31 | 41.65487 | -71.30714 | 21914 ft | 381 kts | 244° |
| 2026-05-08 23:31 | 41.64066 | -71.33705 | 21914 ft | 381 kts | 244° |
| 2026-05-08 23:32 | 41.62644 | -71.36695 | 21907 ft | 381 kts | 244° |
| 2026-05-08 23:32 | 41.61225 | -71.39682 | 21902 ft | 381 kts | 244° |
| 2026-05-08 23:32 | 41.59806 | -71.42668 | 21897 ft | 380 kts | 244° |
| 2026-05-08 23:32 | 41.58385 | -71.45652 | 21893 ft | 381 kts | 244° |
| 2026-05-08 23:33 | 41.56959 | -71.48636 | 21891 ft | 381 kts | 244° |
| 2026-05-08 23:33 | 41.55535 | -71.51615 | 21890 ft | 381 kts | 244° |
| 2026-05-08 23:33 | 41.54107 | -71.54599 | 21891 ft | 381 kts | 244° |
| 2026-05-08 23:33 | 41.52682 | -71.57583 | 21893 ft | 381 kts | 244° |
| 2026-05-08 23:34 | 41.51256 | -71.60568 | 21895 ft | 381 kts | 244° |
| 2026-05-08 23:34 | 41.49828 | -71.63552 | 21897 ft | 381 kts | 244° |
| 2026-05-08 23:34 | 41.48403 | -71.66530 | 21900 ft | 381 kts | 244° |
| 2026-05-08 23:34 | 41.46969 | -71.69516 | 21907 ft | 381 kts | 244° |
| 2026-05-08 23:35 | 41.45538 | -71.72489 | 21906 ft | 381 kts | 244° |
| 2026-05-08 23:35 | 41.44107 | -71.75469 | 21911 ft | 381 kts | 244° |
| 2026-05-08 23:35 | 41.42676 | -71.78443 | 21913 ft | 381 kts | 244° |
| 2026-05-08 23:35 | 41.41242 | -71.81413 | 21913 ft | 381 kts | 244° |
| 2026-05-08 23:36 | 41.39804 | -71.84385 | 21915 ft | 381 kts | 244° |
| 2026-05-08 23:36 | 41.38367 | -71.87354 | 21917 ft | 382 kts | 244° |
| 2026-05-08 23:36 | 41.36929 | -71.90324 | 21919 ft | 382 kts | 244° |
| 2026-05-08 23:36 | 41.35494 | -71.93292 | 21919 ft | 382 kts | 244° |
| 2026-05-08 23:37 | 41.34057 | -71.96264 | 21919 ft | 382 kts | 244° |
| 2026-05-08 23:37 | 41.32619 | -71.99236 | 21920 ft | 382 kts | 244° |
| 2026-05-08 23:37 | 41.31178 | -72.02206 | 21920 ft | 382 kts | 244° |
| 2026-05-08 23:37 | 41.29734 | -72.05178 | 21917 ft | 383 kts | 244° |
| 2026-05-08 23:38 | 41.28304 | -72.08116 | 21917 ft | 383 kts | 244° |
| 2026-05-08 23:38 | 41.26860 | -72.11080 | 21779 ft | 380 kts | 244° |
| 2026-05-08 23:38 | 41.25432 | -72.13999 | 21401 ft | 372 kts | 244° |
| 2026-05-08 23:38 | 41.24032 | -72.16851 | 20875 ft | 366 kts | 244° |
| 2026-05-08 23:39 | 41.22656 | -72.19661 | 20370 ft | 360 kts | 244° |
| 2026-05-08 23:39 | 41.21300 | -72.22433 | 19888 ft | 355 kts | 244° |
| 2026-05-08 23:39 | 41.19958 | -72.25175 | 19402 ft | 351 kts | 244° |
| 2026-05-08 23:39 | 41.18632 | -72.27882 | 18930 ft | 348 kts | 244° |
| 2026-05-08 23:40 | 41.17312 | -72.30569 | 18459 ft | 351 kts | 244° |
| 2026-05-08 23:40 | 41.15970 | -72.33310 | 17976 ft | 354 kts | 243° |
| 2026-05-08 23:40 | 41.14629 | -72.36049 | 17496 ft | 354 kts | 243° |
| 2026-05-08 23:40 | 41.13290 | -72.38777 | 17028 ft | 352 kts | 243° |
| 2026-05-08 23:41 | 41.11956 | -72.41490 | 16550 ft | 350 kts | 243° |
| 2026-05-08 23:41 | 41.10628 | -72.44185 | 16104 ft | 348 kts | 242° |
| 2026-05-08 23:41 | 41.09314 | -72.46845 | 15776 ft | 340 kts | 242° |
| 2026-05-08 23:41 | 41.08029 | -72.49442 | 15325 ft | 334 kts | 242° |
| 2026-05-08 23:42 | 41.06764 | -72.52002 | 14859 ft | 329 kts | 242° |
| 2026-05-08 23:42 | 41.05521 | -72.54525 | 14347 ft | 326 kts | 242° |
| 2026-05-08 23:42 | 41.04290 | -72.57019 | 13912 ft | 321 kts | 241° |
| 2026-05-08 23:42 | 41.03078 | -72.59478 | 13432 ft | 318 kts | 241° |
| 2026-05-08 23:43 | 41.01872 | -72.61922 | 12962 ft | 316 kts | 241° |
| 2026-05-08 23:43 | 41.00690 | -72.64311 | 12783 ft | 303 kts | 241° |
| 2026-05-08 23:43 | 40.99557 | -72.66595 | 12652 ft | 290 kts | 241° |
| 2026-05-08 23:43 | 40.98467 | -72.68786 | 12534 ft | 279 kts | 241° |
| 2026-05-08 23:44 | 40.97416 | -72.70898 | 12299 ft | 272 kts | 241° |
| 2026-05-08 23:44 | 40.96384 | -72.72969 | 12032 ft | 268 kts | 241° |
| 2026-05-08 23:44 | 40.95366 | -72.75019 | 11815 ft | 265 kts | 241° |
| 2026-05-08 23:44 | 40.94359 | -72.77053 | 11414 ft | 264 kts | 241° |
| 2026-05-08 23:45 | 40.93331 | -72.79071 | 10998 ft | 266 kts | 236° |
| 2026-05-08 23:45 | 40.92008 | -72.80808 | 10607 ft | 272 kts | 222° |
| 2026-05-08 23:45 | 40.90476 | -72.82280 | 10231 ft | 272 kts | 221° |
| 2026-05-08 23:45 | 40.88962 | -72.83724 | 9863 ft | 270 kts | 221° |
| 2026-05-08 23:46 | 40.87439 | -72.85179 | 9479 ft | 270 kts | 221° |
| 2026-05-08 23:46 | 40.85922 | -72.86634 | 9098 ft | 269 kts | 221° |
| 2026-05-08 23:46 | 40.84413 | -72.88080 | 9013 ft | 270 kts | 221° |
| 2026-05-08 23:46 | 40.82887 | -72.89546 | 9022 ft | 272 kts | 221° |
| 2026-05-08 23:47 | 40.81359 | -72.91014 | 9024 ft | 272 kts | 221° |
| 2026-05-08 23:47 | 40.79825 | -72.92485 | 9020 ft | 272 kts | 221° |
| 2026-05-08 23:47 | 40.78297 | -72.93954 | 9013 ft | 272 kts | 221° |
| 2026-05-08 23:47 | 40.76764 | -72.95420 | 9015 ft | 272 kts | 221° |
| 2026-05-08 23:48 | 40.75230 | -72.96882 | 9016 ft | 272 kts | 221° |
| 2026-05-08 23:48 | 40.73696 | -72.98341 | 8993 ft | 271 kts | 221° |
| 2026-05-08 23:48 | 40.72174 | -72.99792 | 8671 ft | 268 kts | 221° |
| 2026-05-08 23:48 | 40.70651 | -73.01249 | 8287 ft | 266 kts | 222° |
| 2026-05-08 23:49 | 40.69361 | -73.02913 | 7917 ft | 260 kts | 235° |
| 2026-05-08 23:49 | 40.68247 | -73.04783 | 7539 ft | 259 kts | 237° |
| 2026-05-08 23:49 | 40.67161 | -73.06667 | 7179 ft | 258 kts | 237° |
| 2026-05-08 23:49 | 40.65881 | -73.08900 | 6771 ft | 257 kts | 237° |
| 2026-05-08 23:50 | 40.64287 | -73.11684 | 6254 ft | 254 kts | 237° |
| 2026-05-08 23:50 | 40.63223 | -73.13540 | 5902 ft | 253 kts | 237° |
| 2026-05-08 23:50 | 40.62167 | -73.15393 | 5539 ft | 252 kts | 237° |
| 2026-05-08 23:50 | 40.61119 | -73.17239 | 5196 ft | 251 kts | 237° |
| 2026-05-08 23:51 | 40.60078 | -73.19087 | 4840 ft | 249 kts | 237° |
| 2026-05-08 23:51 | 40.59053 | -73.20927 | 4482 ft | 249 kts | 237° |
| 2026-05-08 23:51 | 40.58039 | -73.22766 | 4147 ft | 248 kts | 237° |
| 2026-05-08 23:51 | 40.57043 | -73.24594 | 4001 ft | 245 kts | 237° |
| 2026-05-08 23:52 | 40.56084 | -73.26465 | 4014 ft | 247 kts | 245° |
| 2026-05-08 23:52 | 40.55652 | -73.28608 | 3775 ft | 243 kts | 264° |
| 2026-05-08 23:52 | 40.55528 | -73.30818 | 3409 ft | 243 kts | 267° |
| 2026-05-08 23:52 | 40.55447 | -73.33030 | 3087 ft | 242 kts | 267° |
| 2026-05-08 23:53 | 40.55376 | -73.35229 | 3014 ft | 243 kts | 267° |
| 2026-05-08 23:53 | 40.55310 | -73.37452 | 3016 ft | 244 kts | 267° |
| 2026-05-08 23:53 | 40.55251 | -73.39681 | 3017 ft | 244 kts | 267° |
| 2026-05-08 23:53 | 40.55194 | -73.41914 | 3022 ft | 245 kts | 267° |
| 2026-05-08 23:54 | 40.55134 | -73.44151 | 3017 ft | 244 kts | 267° |
| 2026-05-08 23:54 | 40.55077 | -73.46333 | 3011 ft | 231 kts | 267° |
| 2026-05-08 23:54 | 40.55027 | -73.48366 | 3010 ft | 215 kts | 267° |
| 2026-05-08 23:55 | 40.54939 | -73.52225 | 3018 ft | 211 kts | 267° |
| 2026-05-08 23:55 | 40.54895 | -73.54152 | 3012 ft | 210 kts | 268° |
| 2026-05-08 23:55 | 40.55226 | -73.56007 | 3008 ft | 214 kts | 298° |
| 2026-05-08 23:55 | 40.56034 | -73.57660 | 3010 ft | 215 kts | 298° |
| 2026-05-08 23:56 | 40.56822 | -73.59342 | 2875 ft | 216 kts | 297° |
| 2026-05-08 23:56 | 40.57598 | -73.61040 | 2637 ft | 216 kts | 297° |
| 2026-05-08 23:56 | 40.58354 | -73.62696 | 2378 ft | 207 kts | 297° |
| 2026-05-08 23:56 | 40.59074 | -73.64273 | 2111 ft | 193 kts | 298° |
| 2026-05-08 23:57 | 40.59736 | -73.65725 | 1860 ft | 175 kts | 299° |
| 2026-05-08 23:57 | 40.60330 | -73.67031 | 1624 ft | 160 kts | 300° |
| 2026-05-08 23:57 | 40.60886 | -73.68253 | 1417 ft | 155 kts | 301° |
| 2026-05-08 23:57 | 40.61432 | -73.69454 | 1218 ft | 152 kts | 301° |
| 2026-05-08 23:58 | 40.61971 | -73.70640 | 1017 ft | 150 kts | 302° |
| 2026-05-08 23:58 | 40.62505 | -73.71815 | 822 ft | 149 kts | 302° |
| 2026-05-08 23:58 | 40.63032 | -73.72976 | 626 ft | 146 kts | 303° |
| 2026-05-08 23:58 | 40.63548 | -73.74112 | 432 ft | 144 kts | 303° |
| 2026-05-08 23:59 | 40.64063 | -73.75241 | 249 ft | 143 kts | 303° |
| 2026-05-08 23:59 | 40.64571 | -73.76363 | 45 ft | 140 kts | 302° |
| 2026-05-08 23:59 | 40.65003 | -73.77313 | 19 ft | 97 kts | 301° |
| 2026-05-08 23:59 | 40.65259 | -73.77884 | 19 ft | 47 kts | 300° |
| 2026-05-09 00:00 | 40.65302 | -73.78117 | 23 ft | 11 kts | 243° |
| 2026-05-09 00:00 | 40.65299 | -73.78122 | 23 ft | 0 kts | 233° |
| 2026-05-09 00:00 | 40.65298 | -73.78123 | 23 ft | 0 kts | 225° |